Terminal Aerodrome Forecast
Issued by NWS

Home | Current Version | Previous Version | Text Only | Print | Product List | Glossary On
Versions: 1 2 3 4 5 6 7 8 9 10 11 12 13 14
000
FTUS41 KBTV 290540
TAFMPV
TAF
KMPV 290540Z 2906/3006 00000KT 1/2SM FG VV001
     FM291200 00000KT P6SM OVC020
     FM291300 00000KT P6SM SCT020 BKN035
     FM291500 VRB03KT P6SM SCT035 BKN080
     FM291900 33007KT P6SM SCT040 BKN110
     FM300000 00000KT P6SM FEW250=

USA.gov is the U.S. government's official web portal to all federal, state and local government web resources and services.